createdAt,value
2019-03-27T00:00:37.416Z,3.25
2019-03-27T00:03:07.102Z,3.90
2019-03-27T00:05:36.559Z,4.00
2019-03-27T00:08:05.991Z,3.37
2019-03-27T00:10:35.421Z,3.58
2019-03-27T00:13:05.024Z,3.57
2019-03-27T00:15:34.357Z,3.27
2019-03-27T00:18:03.848Z,3.07
2019-03-27T00:20:33.184Z,3.50
2019-03-27T00:23:02.469Z,3.37
2019-03-27T00:25:31.987Z,3.50
2019-03-27T00:28:01.514Z,3.50
2019-03-27T00:30:30.810Z,3.57
2019-03-27T00:33:00.125Z,3.00
2019-03-27T00:35:29.559Z,3.30
2019-03-27T00:37:59.179Z,3.37
2019-03-27T00:40:28.497Z,3.10
2019-03-27T00:42:57.849Z,2.87
2019-03-27T00:45:27.335Z,2.70
2019-03-27T00:47:56.896Z,2.90
2019-03-27T00:50:26.230Z,2.72
2019-03-27T00:52:55.550Z,2.60
2019-03-27T00:55:25.155Z,2.10
2019-03-27T00:57:55.771Z,2.57
2019-03-27T01:00:28.227Z,2.63
2019-03-27T01:02:57.553Z,2.67
2019-03-27T01:05:26.950Z,2.70
2019-03-27T01:07:56.544Z,2.80
2019-03-27T01:10:25.928Z,2.70
2019-03-27T01:12:55.316Z,3.13
2019-03-27T01:15:24.683Z,2.57
2019-03-27T01:17:54.163Z,2.87
2019-03-27T01:20:23.484Z,2.50
2019-03-27T01:22:52.899Z,2.50
2019-03-27T01:25:22.338Z,2.57
2019-03-27T01:27:51.778Z,2.73
2019-03-27T01:30:21.184Z,4.30
2019-03-27T01:32:50.479Z,3.03
2019-03-27T01:35:19.797Z,2.50
2019-03-27T01:37:49.186Z,2.80
2019-03-27T01:40:18.605Z,2.43
2019-03-27T01:42:47.919Z,2.70
2019-03-27T01:45:17.324Z,2.50
2019-03-27T01:47:46.800Z,2.77
2019-03-27T01:50:16.301Z,2.90
2019-03-27T01:52:45.667Z,2.40
2019-03-27T01:55:14.961Z,2.63
2019-03-27T01:57:44.403Z,2.57
2019-03-27T02:00:14.259Z,2.53
2019-03-27T02:02:43.639Z,2.80
2019-03-27T02:05:13.134Z,2.47
2019-03-27T02:07:42.439Z,2.50
2019-03-27T02:10:13.082Z,2.20
2019-03-27T02:12:42.463Z,2.90
2019-03-27T02:15:12.368Z,2.83
2019-03-27T02:17:41.922Z,2.80
2019-03-27T02:20:11.730Z,2.43
2019-03-27T02:22:41.043Z,2.47
2019-03-27T02:25:11.472Z,2.73
2019-03-27T02:27:40.941Z,2.53
2019-03-27T02:30:11.118Z,2.13
2019-03-27T02:32:40.434Z,2.40
2019-03-27T02:35:09.850Z,2.17
2019-03-27T02:37:39.350Z,2.30
2019-03-27T02:40:09.793Z,2.30
2019-03-27T02:42:39.119Z,2.00
2019-03-27T02:45:08.745Z,2.30
2019-03-27T02:47:38.170Z,2.70
2019-03-27T02:50:07.796Z,2.17
2019-03-27T02:52:37.117Z,2.33
2019-03-27T02:55:06.677Z,2.93
2019-03-27T02:57:36.440Z,2.30
2019-03-27T03:00:07.189Z,2.50
2019-03-27T03:02:39.403Z,2.60
2019-03-27T03:05:09.592Z,2.13
2019-03-27T03:07:39.080Z,2.43
2019-03-27T03:10:10.406Z,2.50
2019-03-27T03:12:39.990Z,2.47
2019-03-27T03:15:10.730Z,2.55
2019-03-27T03:17:40.378Z,2.67
2019-03-27T03:20:12.278Z,2.47
2019-03-27T03:22:41.621Z,2.57
2019-03-27T03:25:11.175Z,2.57
2019-03-27T03:27:40.766Z,2.60
2019-03-27T03:30:11.632Z,2.95
2019-03-27T03:32:40.954Z,2.70
2019-03-27T03:35:11.736Z,2.98
2019-03-27T03:37:42.190Z,2.60
2019-03-27T03:40:12.344Z,2.93
2019-03-27T03:42:42.147Z,3.00
2019-03-27T03:45:12.021Z,2.62
2019-03-27T03:47:41.470Z,2.43
2019-03-27T03:50:32.503Z,2.77
2019-03-27T03:53:02.472Z,2.90
2019-03-27T03:55:33.722Z,2.67
2019-03-27T03:58:03.609Z,2.60
2019-03-27T04:00:33.506Z,2.33
2019-03-27T04:03:04.339Z,2.93
2019-03-27T04:05:33.692Z,3.20
2019-03-27T04:08:03.375Z,2.57
2019-03-27T04:10:32.681Z,2.93
2019-03-27T04:13:02.014Z,2.90
2019-03-27T04:15:31.350Z,2.80
2019-03-27T04:18:00.689Z,2.77
2019-03-27T04:20:30.011Z,3.13
2019-03-27T04:22:59.328Z,3.10
2019-03-27T04:25:28.635Z,3.53
2019-03-27T04:27:58.171Z,3.10
2019-03-27T04:30:33.547Z,3.23
2019-03-27T04:33:02.833Z,3.27
2019-03-27T04:35:32.150Z,3.37
2019-03-27T04:38:01.939Z,3.10
2019-03-27T04:40:31.266Z,3.17
2019-03-27T04:43:00.586Z,3.03
2019-03-27T04:45:29.887Z,4.27
2019-03-27T04:47:59.330Z,3.70
2019-03-27T04:50:28.635Z,3.30
2019-03-27T04:52:57.962Z,3.93
2019-03-27T04:55:27.318Z,3.80
2019-03-27T04:57:56.685Z,3.63
2019-03-27T05:01:12.415Z,3.47
2019-03-27T05:03:41.794Z,3.47
2019-03-27T05:06:11.114Z,3.30
2019-03-27T05:08:40.516Z,3.80
2019-03-27T05:11:09.859Z,4.23
2019-03-27T05:13:39.215Z,4.30
2019-03-27T05:16:08.565Z,3.83
2019-03-27T05:18:37.949Z,3.73
2019-03-27T05:21:07.358Z,4.30
2019-03-27T05:23:36.677Z,3.97
2019-03-27T05:26:06.068Z,5.03
2019-03-27T05:28:35.556Z,4.47
2019-03-27T05:31:04.881Z,4.60
2019-03-27T05:33:34.349Z,4.03
2019-03-27T05:36:03.843Z,3.90
2019-03-27T05:38:33.351Z,4.20
2019-03-27T05:41:02.679Z,4.07
2019-03-27T05:43:31.966Z,4.13
2019-03-27T05:46:01.474Z,4.43
2019-03-27T05:48:31.068Z,4.10
2019-03-27T05:51:00.385Z,4.30
2019-03-27T05:53:29.696Z,4.17
2019-03-27T05:55:59.015Z,4.40
2019-03-27T05:58:28.405Z,4.50
2019-03-27T06:00:57.695Z,4.13
2019-03-27T06:03:27.145Z,4.73
2019-03-27T06:05:56.682Z,4.53
2019-03-27T06:08:26.206Z,4.93
2019-03-27T06:10:55.608Z,5.00
2019-03-27T06:13:24.926Z,4.73
2019-03-27T06:15:54.314Z,4.90
2019-03-27T06:18:25.217Z,5.37
2019-03-27T06:20:54.621Z,5.60
2019-03-27T06:23:23.961Z,5.17
2019-03-27T06:25:53.287Z,5.80
2019-03-27T06:28:24.907Z,6.33
2019-03-27T06:30:54.216Z,6.17
2019-03-27T06:33:27.134Z,6.93
2019-03-27T06:35:56.931Z,5.97
2019-03-27T06:38:26.217Z,6.30
2019-03-27T06:40:55.578Z,7.03
2019-03-27T06:43:24.888Z,6.23
2019-03-27T06:45:58.235Z,6.73
2019-03-27T06:48:26.756Z,6.77
2019-03-27T06:50:56.110Z,7.17
2019-03-27T06:53:25.438Z,6.10
2019-03-27T06:55:54.789Z,6.57
2019-03-27T06:58:24.257Z,5.60
2019-03-27T07:00:53.569Z,6.70
2019-03-27T07:03:22.879Z,6.07
2019-03-27T07:05:52.202Z,5.63
2019-03-27T07:08:21.686Z,6.57
2019-03-27T07:10:51.114Z,5.57
2019-03-27T07:13:20.493Z,6.23
2019-03-27T07:15:49.937Z,5.73
2019-03-27T07:18:19.270Z,5.80
2019-03-27T07:20:48.596Z,5.30
2019-03-27T07:23:17.887Z,5.63
2019-03-27T07:25:47.201Z,6.03
2019-03-27T07:28:16.674Z,5.10
2019-03-27T07:30:46.188Z,5.00
2019-03-27T07:33:15.496Z,4.70
2019-03-27T07:35:44.805Z,5.03
2019-03-27T07:38:14.285Z,5.00
2019-03-27T07:40:43.750Z,5.77
2019-03-27T07:43:13.085Z,6.10
2019-03-27T07:45:42.405Z,5.67
2019-03-27T07:48:11.901Z,5.70
2019-03-27T07:50:41.216Z,5.43
2019-03-27T07:53:10.525Z,5.17
2019-03-27T07:55:39.846Z,5.37
2019-03-27T07:58:09.303Z,4.60
2019-03-27T08:00:38.623Z,5.23
2019-03-27T08:03:08.099Z,4.57
2019-03-27T08:05:37.450Z,5.13
2019-03-27T08:08:06.925Z,3.80
2019-03-27T08:10:36.404Z,4.20
2019-03-27T08:13:05.739Z,4.90
2019-03-27T08:15:35.123Z,3.77
2019-03-27T08:18:04.537Z,4.57
2019-03-27T08:20:33.840Z,3.73
2019-03-27T08:23:03.409Z,3.63
2019-03-27T08:25:32.726Z,5.03
2019-03-27T08:28:02.124Z,4.27
2019-03-27T08:30:31.730Z,4.47
2019-03-27T08:33:01.028Z,3.20
2019-03-27T08:35:30.349Z,2.63
2019-03-27T08:38:15.166Z,2.10
2019-03-27T08:40:44.628Z,2.60
2019-03-27T08:43:21.049Z,2.77
2019-03-27T08:45:45.067Z,2.50
2019-03-27T08:48:14.531Z,2.40
2019-03-27T08:50:43.855Z,2.60
2019-03-27T08:53:13.217Z,2.30
2019-03-27T08:55:42.541Z,1.80
2019-03-27T08:58:11.943Z,3.00
2019-03-27T09:00:49.194Z,3.00
2019-03-27T09:03:18.895Z,4.20
2019-03-27T09:05:48.478Z,3.70
2019-03-27T09:08:18.112Z,5.00
2019-03-27T09:10:48.914Z,4.40
2019-03-27T09:13:18.487Z,3.77
2019-03-27T09:15:47.998Z,3.27
2019-03-27T09:18:17.504Z,3.47
2019-03-27T09:20:47.096Z,3.03
2019-03-27T09:23:17.242Z,3.10
2019-03-27T09:25:48.833Z,3.50
2019-03-27T09:28:20.183Z,3.80
2019-03-27T09:30:49.560Z,3.10
2019-03-27T09:33:19.424Z,3.60
2019-03-27T09:35:51.763Z,3.40
2019-03-27T09:38:41.308Z,3.63
2019-03-27T09:41:16.110Z,3.20
2019-03-27T09:44:34.868Z,3.70
2019-03-27T09:47:04.189Z,2.87
2019-03-27T09:49:33.561Z,3.67
2019-03-27T09:52:02.879Z,3.80
2019-03-27T09:54:32.188Z,4.00
2019-03-27T09:57:01.520Z,3.03
2019-03-27T09:59:31.000Z,3.60
2019-03-27T10:02:00.317Z,3.60
2019-03-27T10:04:29.682Z,3.83
2019-03-27T10:06:59.193Z,3.70
2019-03-27T10:09:28.567Z,4.03
2019-03-27T10:11:57.974Z,3.93
2019-03-27T10:14:27.297Z,4.47
2019-03-27T10:16:56.612Z,3.90
2019-03-27T10:19:25.966Z,3.40
2019-03-27T10:21:55.480Z,3.80
2019-03-27T10:24:24.788Z,3.73
2019-03-27T10:26:54.123Z,3.80
2019-03-27T10:29:23.601Z,4.20
2019-03-27T10:31:53.006Z,3.70
2019-03-27T10:34:22.397Z,3.93
2019-03-27T10:36:51.709Z,3.67
2019-03-27T10:39:21.185Z,3.40
2019-03-27T10:41:50.589Z,3.80
2019-03-27T10:44:19.978Z,3.97
2019-03-27T10:46:49.312Z,3.83
2019-03-27T10:49:18.805Z,4.40
2019-03-27T10:51:48.149Z,4.00
2019-03-27T10:54:17.458Z,4.30
2019-03-27T10:56:46.986Z,4.35
2019-03-27T10:59:16.639Z,4.30
2019-03-27T11:01:45.936Z,4.23
2019-03-27T11:04:15.262Z,4.50
2019-03-27T11:06:44.792Z,4.63
2019-03-27T11:09:14.270Z,4.47
2019-03-27T11:11:43.593Z,4.90
2019-03-27T11:14:12.907Z,4.80
2019-03-27T11:16:42.229Z,4.87
2019-03-27T11:19:11.645Z,4.50
2019-03-27T11:21:41.035Z,5.30
2019-03-27T11:24:10.641Z,5.70
2019-03-27T11:26:39.974Z,4.47
2019-03-27T11:29:09.469Z,5.23
2019-03-27T11:31:38.760Z,4.40
2019-03-27T11:34:08.100Z,5.03
2019-03-27T11:36:37.510Z,4.57
2019-03-27T11:39:09.435Z,5.07
2019-03-27T11:41:38.778Z,4.60
2019-03-27T11:44:08.173Z,4.93
2019-03-27T11:46:37.650Z,5.70
2019-03-27T11:49:08.277Z,5.23
2019-03-27T11:51:37.609Z,3.93
2019-03-27T11:54:06.992Z,4.63
2019-03-27T11:56:36.407Z,4.93
2019-03-27T11:59:06.773Z,4.13
2019-03-27T12:01:42.221Z,4.83
2019-03-27T12:04:09.794Z,5.13
2019-03-27T12:06:39.122Z,4.67
2019-03-27T12:09:08.824Z,4.60
2019-03-27T12:11:38.246Z,4.87
2019-03-27T12:14:07.538Z,4.80
2019-03-27T12:16:36.936Z,4.80
2019-03-27T12:19:06.369Z,4.70
2019-03-27T12:21:35.675Z,5.00
2019-03-27T12:24:06.475Z,4.80
2019-03-27T12:26:35.870Z,4.50
2019-03-27T12:29:06.561Z,4.80
2019-03-27T12:31:35.863Z,4.50
2019-03-27T12:34:06.389Z,4.00
2019-03-27T12:36:36.520Z,4.37
2019-03-27T12:39:07.768Z,4.90
2019-03-27T12:41:37.111Z,4.63
2019-03-27T12:44:06.415Z,4.27
2019-03-27T12:46:35.729Z,4.20
2019-03-27T12:49:05.406Z,4.10
2019-03-27T12:51:35.998Z,4.00
2019-03-27T12:54:08.366Z,3.77
2019-03-27T12:56:37.743Z,3.80
2019-03-27T12:59:07.168Z,4.10
2019-03-27T13:01:36.485Z,3.90
2019-03-27T13:04:06.736Z,4.60
2019-03-27T13:06:36.389Z,3.90
2019-03-27T13:09:07.195Z,4.20
2019-03-27T13:11:36.912Z,4.00
2019-03-27T13:14:06.554Z,3.80
2019-03-27T13:16:35.884Z,3.83
2019-03-27T13:19:05.403Z,3.77
2019-03-27T13:21:34.747Z,4.10
2019-03-27T13:24:04.149Z,4.13
2019-03-27T13:26:33.546Z,4.27
2019-03-27T13:29:03.179Z,4.20
2019-03-27T13:31:32.560Z,3.63
2019-03-27T13:34:01.918Z,4.27
2019-03-27T13:36:31.532Z,4.17
2019-03-27T13:39:00.882Z,3.90
2019-03-27T13:41:30.237Z,3.93
2019-03-27T13:43:59.529Z,3.97
2019-03-27T13:46:28.858Z,3.57
2019-03-27T13:48:58.382Z,4.00
2019-03-27T13:51:39.957Z,3.50
2019-03-27T13:53:59.146Z,3.97
2019-03-27T13:56:28.648Z,3.80
2019-03-27T13:58:57.948Z,3.23
2019-03-27T14:01:27.367Z,3.60
2019-03-27T14:03:56.683Z,3.77
2019-03-27T14:06:25.995Z,3.60
2019-03-27T14:08:55.369Z,3.83
2019-03-27T14:11:24.675Z,3.97
2019-03-27T14:13:54.031Z,3.27
2019-03-27T14:16:23.404Z,3.33
2019-03-27T14:18:52.768Z,3.43
2019-03-27T14:21:23.424Z,3.00
2019-03-27T14:23:53.003Z,3.20
2019-03-27T14:26:22.584Z,2.83
2019-03-27T14:28:53.034Z,2.90
2019-03-27T14:31:22.566Z,2.67
2019-03-27T14:33:56.124Z,2.93
2019-03-27T14:36:35.439Z,3.33
2019-03-27T14:39:21.090Z,2.77
2019-03-27T14:42:14.218Z,2.93
2019-03-27T14:44:43.547Z,2.40
2019-03-27T14:47:13.036Z,2.80
2019-03-27T14:49:43.662Z,2.90
2019-03-27T14:52:13.445Z,3.10
2019-03-27T14:54:43.215Z,2.90
2019-03-27T14:57:13.619Z,3.10
2019-03-27T14:59:59.111Z,3.17
2019-03-27T15:02:38.291Z,2.80
2019-03-27T15:05:08.389Z,2.87
2019-03-27T15:07:38.024Z,2.80
2019-03-27T15:10:09.112Z,2.80
2019-03-27T15:12:42.339Z,3.70
2019-03-27T15:15:13.415Z,2.73
2019-03-27T15:17:42.970Z,3.03
2019-03-27T15:20:12.941Z,2.90
2019-03-27T15:22:42.355Z,2.87
2019-03-27T15:25:12.115Z,3.47
2019-03-27T15:27:41.577Z,3.30
2019-03-27T15:30:12.886Z,2.97
2019-03-27T15:32:42.814Z,3.40
2019-03-27T15:35:12.298Z,3.43
2019-03-27T15:37:41.970Z,3.60
2019-03-27T15:40:12.652Z,3.47
2019-03-27T15:42:42.001Z,4.10
2019-03-27T15:45:14.151Z,3.50
2019-03-27T15:47:43.564Z,3.50
2019-03-27T15:50:13.360Z,3.63
2019-03-27T15:52:42.668Z,3.80
2019-03-27T15:55:13.139Z,3.63
2019-03-27T15:57:42.601Z,3.83
2019-03-27T16:00:12.477Z,3.77
2019-03-27T16:02:41.983Z,3.80
2019-03-27T16:05:11.771Z,3.87
2019-03-27T16:07:41.219Z,3.27
2019-03-27T16:10:10.812Z,3.40
2019-03-27T16:12:40.590Z,3.20
2019-03-27T16:15:10.573Z,3.60
2019-03-27T16:17:40.122Z,3.20
2019-03-27T16:20:10.211Z,3.65
2019-03-27T16:22:49.944Z,3.33
2019-03-27T16:25:13.581Z,3.83
2019-03-27T16:27:45.353Z,3.63
2019-03-27T16:30:17.360Z,2.90
2019-03-27T16:32:48.775Z,3.20
2019-03-27T16:35:18.089Z,3.43
2019-03-27T16:37:47.600Z,3.13
2019-03-27T16:40:35.363Z,3.13
2019-03-27T16:43:05.151Z,3.03
2019-03-27T16:45:34.484Z,3.00
2019-03-27T16:48:04.435Z,3.50
2019-03-27T16:50:33.754Z,3.10
2019-03-27T16:53:03.922Z,3.30
2019-03-27T16:55:33.539Z,3.43
2019-03-27T16:58:02.996Z,3.23
